Time;durP1;ratioP1;P1;durP2;ratioP2;P2;SDS_P1;SDS_P2;PMS_P1;PMS_P2;Temp;Humidity;BMP_temperature;BMP_pressure;BME280_temperature;BME280_humidity;BME280_pressure;Samples;Min_cycle;Max_cycle;Signal;HPM_P1;HPM_P2
2024/04/07 00:01:12;;;;;;;8.55;3.58;;;;;;;18.02;73.21;100810.88;5061369;28;20491;-63
2024/04/07 00:03:38;;;;;;;9.88;3.30;;;;;;;17.97;73.23;100812.94;5064724;28;20498;-64
2024/04/07 00:06:03;;;;;;;10.45;4.00;;;;;;;17.97;71.16;100829.63;5047008;28;20115;-64
2024/04/07 00:08:29;;;;;;;10.13;3.58;;;;;;;17.95;72.47;100835.94;5055368;28;20503;-64
2024/04/07 00:10:55;;;;;;;6.90;2.80;;;;;;;17.96;70.23;100843.78;5056248;28;20122;-63
2024/04/07 00:13:20;;;;;;;7.75;3.05;;;;;;;17.94;71.36;100835.09;5060242;28;20650;-64
2024/04/07 00:15:45;;;;;;;7.68;2.92;;;;;;;17.99;70.62;100826.88;5054660;28;20020;-64
2024/04/07 00:18:11;;;;;;;6.63;3.10;;;;;;;17.99;71.18;100833.03;5064254;28;20471;-64
2024/04/07 00:20:36;;;;;;;6.07;2.80;;;;;;;18.02;70.75;100829.34;5062414;28;20562;-64
2024/04/07 00:23:01;;;;;;;7.80;2.88;;;;;;;18.02;70.58;100837.28;5058488;28;20441;-64
2024/04/07 00:25:26;;;;;;;9.82;2.83;;;;;;;18.04;70.21;100838.84;5061622;28;20028;-64
2024/04/07 00:27:52;;;;;;;7.30;2.50;;;;;;;18.06;70.27;100849.34;5067385;28;20086;-63
2024/04/07 00:30:17;;;;;;;6.30;2.38;;;;;;;18.06;69.99;100854.63;5058504;28;20020;-64
2024/04/07 00:32:43;;;;;;;8.32;2.70;;;;;;;18.09;70.07;100845.63;5057269;28;20032;-65
2024/04/07 00:35:08;;;;;;;6.65;2.30;;;;;;;18.09;69.54;100854.44;5070450;28;20089;-64
2024/04/07 00:37:33;;;;;;;5.93;2.00;;;;;;;18.11;70.08;100872.81;5063545;28;20050;-64
2024/04/07 00:39:59;;;;;;;7.15;2.50;;;;;;;18.12;70.14;100864.78;5059668;28;20024;-64
2024/04/07 00:42:24;;;;;;;8.15;2.33;;;;;;;18.12;70.80;100895.66;5060606;28;20028;-65
2024/04/07 00:44:51;;;;;;;8.50;2.65;;;;;;;18.10;70.46;100898.41;5061223;28;20024;-63
2024/04/07 00:47:16;;;;;;;4.25;2.25;;;;;;;18.10;70.48;100914.25;5065478;28;20612;-65
2024/04/07 00:49:43;;;;;;;6.30;2.17;;;;;;;18.10;70.13;100908.09;5055599;28;20112;-64
2024/04/07 00:52:10;;;;;;;7.03;2.13;;;;;;;18.11;70.06;100894.78;5058388;28;20032;-64
2024/04/07 00:54:36;;;;;;;5.70;2.60;;;;;;;18.14;69.74;100884.03;5065191;28;20055;-64
2024/04/07 00:57:01;;;;;;;5.65;2.15;;;;;;;18.12;70.51;100896.50;5064156;28;20332;-65
2024/04/07 00:59:26;;;;;;;4.90;1.92;;;;;;;18.15;70.73;100883.09;5067947;28;20026;-64
2024/04/07 01:01:52;;;;;;;6.32;2.15;;;;;;;18.13;71.30;100916.69;5058989;28;20454;-64
2024/04/07 01:04:17;;;;;;;5.32;2.20;;;;;;;18.12;70.28;100920.25;5060671;28;20032;-64
2024/04/07 01:06:43;;;;;;;6.65;2.25;;;;;;;18.10;71.05;100919.53;5063486;28;20024;-64
2024/04/07 01:09:09;;;;;;;6.90;2.13;;;;;;;18.02;72.33;100935.00;5066748;28;20031;-64
2024/04/07 01:11:34;;;;;;;8.15;2.35;;;;;;;18.03;72.08;100955.16;5079563;28;20535;-63
2024/04/07 01:14:00;;;;;;;6.25;2.35;;;;;;;17.97;72.71;100947.63;5060619;28;20542;-64
2024/04/07 01:16:25;;;;;;;5.97;2.20;;;;;;;17.99;72.34;100937.81;5049385;28;20052;-64
2024/04/07 01:18:50;;;;;;;6.43;2.45;;;;;;;17.95;72.07;100962.69;5072528;28;20403;-64
2024/04/07 01:21:16;;;;;;;6.15;2.42;;;;;;;17.92;72.62;100968.19;5062404;28;20305;-65
2024/04/07 01:23:41;;;;;;;5.25;2.05;;;;;;;17.92;71.80;100973.47;5064635;28;20158;-64
2024/04/07 01:26:07;;;;;;;6.78;2.20;;;;;;;17.88;72.61;100968.34;5066422;28;20313;-64
2024/04/07 01:28:33;;;;;;;8.00;2.55;;;;;;;17.89;73.11;100972.69;5074800;28;20055;-64
2024/04/07 01:30:58;;;;;;;9.50;2.40;;;;;;;17.87;72.94;100985.13;5058634;28;20029;-64
2024/04/07 01:33:23;;;;;;;7.65;2.22;;;;;;;17.88;73.32;100978.91;5053850;28;20025;-64
2024/04/07 01:35:49;;;;;;;10.13;2.38;;;;;;;17.86;72.75;100972.84;5050038;28;20560;-65
2024/04/07 01:38:15;;;;;;;6.45;2.05;;;;;;;17.84;72.98;100972.09;5059221;28;20031;-65
2024/04/07 01:40:40;;;;;;;3.58;1.75;;;;;;;17.81;72.35;100971.44;5064749;28;20036;-64
2024/04/07 01:43:06;;;;;;;5.05;2.03;;;;;;;17.80;73.76;100986.44;5058411;28;20044;-65
2024/04/07 01:45:31;;;;;;;4.57;1.80;;;;;;;17.82;73.93;100988.97;5055137;28;20552;-64
2024/04/07 01:47:56;;;;;;;5.00;1.80;;;;;;;17.77;74.54;101002.47;5060746;28;20035;-64
2024/04/07 01:50:22;;;;;;;4.95;1.73;;;;;;;17.72;74.10;101031.75;5065160;28;20180;-64
2024/04/07 01:52:47;;;;;;;6.07;2.55;;;;;;;17.70;74.36;101028.38;5064291;28;20024;-64
2024/04/07 01:55:13;;;;;;;4.25;2.00;;;;;;;17.68;75.17;101018.84;5062551;28;20409;-64
2024/04/07 01:57:38;;;;;;;7.13;1.77;;;;;;;17.63;74.47;101047.28;5055872;28;20029;-65
2024/04/07 02:00:07;;;;;;;4.40;2.08;;;;;;;17.58;74.82;101049.34;5054627;28;20074;-65
2024/04/07 02:02:33;;;;;;;4.70;1.83;;;;;;;17.54;74.67;101064.50;5052587;28;20541;-64
2024/04/07 02:04:58;;;;;;;7.13;1.83;;;;;;;17.47;75.24;101081.63;5057493;28;20424;-64
2024/04/07 02:07:24;;;;;;;6.07;1.88;;;;;;;17.46;76.10;101086.06;5053223;28;20527;-64
2024/04/07 02:09:49;;;;;;;3.30;1.70;;;;;;;17.48;75.20;101104.47;5064667;28;20025;-64
2024/04/07 02:12:15;;;;;;;5.50;1.75;;;;;;;17.41;75.87;101103.94;5065828;28;20233;-64
2024/04/07 02:14:41;;;;;;;4.85;1.90;;;;;;;17.34;76.24;101100.81;5064418;28;20050;-65
2024/04/07 02:17:06;;;;;;;5.07;2.10;;;;;;;17.37;76.82;101110.34;5062440;28;20035;-64
2024/04/07 02:19:31;;;;;;;5.72;1.75;;;;;;;17.35;76.86;101118.34;5062674;28;20025;-64
2024/04/07 02:21:57;;;;;;;5.00;1.80;;;;;;;17.37;77.46;101116.44;5062604;28;20067;-64
2024/04/07 02:24:22;;;;;;;7.43;2.00;;;;;;;17.32;77.96;101115.84;5060325;28;20115;-64
2024/04/07 02:26:47;;;;;;;6.60;1.95;;;;;;;17.35;77.89;101112.19;5055897;28;20517;-64
2024/04/07 02:29:13;;;;;;;8.13;2.00;;;;;;;17.31;78.24;101131.78;5060944;28;20119;-64
2024/04/07 02:31:39;;;;;;;4.38;1.75;;;;;;;17.25;78.57;101142.66;5056217;28;20472;-64
2024/04/07 02:34:04;;;;;;;5.05;1.90;;;;;;;17.18;78.46;101143.00;5050556;28;20036;-64
2024/04/07 02:36:31;;;;;;;6.07;1.85;;;;;;;17.15;78.41;101151.09;5055981;28;20017;-63
2024/04/07 02:38:56;;;;;;;3.00;1.80;;;;;;;17.10;78.79;101147.00;5061807;28;20615;-63
2024/04/07 02:41:22;;;;;;;4.45;1.70;;;;;;;17.08;78.48;101143.59;5063880;28;20501;-64
2024/04/07 02:43:48;;;;;;;5.82;1.60;;;;;;;17.09;78.40;101129.47;5053897;28;20056;-63
2024/04/07 02:48:58;;;;;;;3.72;1.45;;;;;;;17.10;75.10;101125.91;5070042;28;20401;-64
2024/04/07 02:51:23;;;;;;;4.75;1.70;;;;;;;16.94;77.24;101129.38;5057487;28;20080;-64
2024/04/07 02:53:48;;;;;;;4.85;1.70;;;;;;;16.89;78.38;101141.94;5059701;28;20024;-64
2024/04/07 02:56:15;;;;;;;5.05;1.45;;;;;;;16.88;77.13;101145.50;5073058;28;20116;-65
2024/04/07 02:58:42;;;;;;;4.65;1.40;;;;;;;16.84;76.69;101150.06;5065384;28;20031;-64
2024/04/07 03:01:07;;;;;;;3.42;1.40;;;;;;;16.80;74.03;101161.72;5061443;28;20079;-65
2024/04/07 03:03:33;;;;;;;4.13;1.20;;;;;;;16.77;74.08;101153.97;5061739;28;20457;-65
2024/04/07 03:06:04;;;;;;;5.57;1.20;;;;;;;16.82;73.41;101162.47;5050510;28;20029;-64
2024/04/07 03:08:29;;;;;;;1.10;0.73;;;;;;;16.69;72.95;101158.78;5059468;28;20036;-64
2024/04/07 03:11:02;;;;;;;2.33;1.02;;;;;;;16.59;72.69;101174.22;5057981;28;20424;-65
2024/04/07 03:13:29;;;;;;;1.17;0.82;;;;;;;16.66;69.50;101166.88;5051018;28;20050;-64
2024/04/07 03:15:54;;;;;;;2.50;0.80;;;;;;;16.49;72.35;101159.81;5051534;28;20378;-64
2024/04/07 03:18:20;;;;;;;1.17;0.60;;;;;;;16.48;72.18;101163.41;5062004;28;20032;-64
2024/04/07 03:20:47;;;;;;;2.47;0.73;;;;;;;16.44;71.76;101148.69;5063633;28;20016;-64
2024/04/07 03:23:12;;;;;;;2.00;0.60;;;;;;;16.41;69.65;101141.78;5069467;28;20359;-64
2024/04/07 03:25:38;;;;;;;1.38;0.60;;;;;;;16.39;69.51;101148.91;5062236;28;20523;-63
2024/04/07 03:28:04;;;;;;;1.08;0.57;;;;;;;16.45;68.42;101153.88;5068694;28;20020;-64
2024/04/07 03:30:29;;;;;;;0.93;0.55;;;;;;;16.31;69.32;101148.44;5056486;28;20112;-64
2024/04/07 03:32:55;;;;;;;0.68;0.50;;;;;;;16.33;68.21;101152.69;5051109;28;20119;-64
2024/04/07 03:35:20;;;;;;;1.02;0.70;;;;;;;16.32;67.87;101143.09;5042634;28;20417;-64
2024/04/07 03:37:45;;;;;;;3.15;0.90;;;;;;;16.25;69.04;101162.78;5062039;28;20557;-64
2024/04/07 03:40:11;;;;;;;1.75;0.80;;;;;;;16.30;67.88;101136.22;5059867;28;20582;-65
2024/04/07 03:42:36;;;;;;;2.03;0.60;;;;;;;16.24;68.21;101133.88;5057050;28;20028;-65
2024/04/07 03:45:01;;;;;;;1.15;0.60;;;;;;;16.19;68.23;101129.69;5064406;28;20025;-64
2024/04/07 03:47:27;;;;;;;1.58;0.60;;;;;;;16.23;67.83;101116.38;5053429;28;20040;-65
2024/04/07 03:49:52;;;;;;;1.88;0.50;;;;;;;16.17;68.64;101122.81;5066502;28;20095;-62
2024/04/07 03:52:19;;;;;;;0.77;0.55;;;;;;;16.14;67.93;101123.84;5054501;28;20024;-63
2024/04/07 03:54:44;;;;;;;0.30;0.30;;;;;;;16.14;67.75;101129.09;5061238;28;20072;-63
2024/04/07 03:57:09;;;;;;;0.63;0.63;;;;;;;16.13;67.54;101116.84;5065601;28;20028;-64
2024/04/07 03:59:35;;;;;;;1.70;0.70;;;;;;;16.13;66.70;101111.59;5049741;28;20123;-63
2024/04/07 04:02:01;;;;;;;2.70;0.90;;;;;;;16.11;67.14;101100.25;5050275;28;20112;-63
2024/04/07 04:04:26;;;;;;;1.65;0.52;;;;;;;16.11;66.51;101097.63;5053774;28;20371;-63
2024/04/07 04:06:52;;;;;;;1.42;0.60;;;;;;;16.06;67.29;101099.66;5065485;28;20028;-63
2024/04/07 04:09:17;;;;;;;1.77;0.57;;;;;;;16.13;65.87;101090.53;5061491;28;20099;-63
2024/04/07 04:11:42;;;;;;;1.10;0.50;;;;;;;16.13;65.36;101101.06;5062478;28;20056;-63
2024/04/07 04:14:08;;;;;;;3.97;0.60;;;;;;;16.10;65.75;101110.88;5057855;28;20155;-62
2024/04/07 04:16:33;;;;;;;1.30;0.55;;;;;;;16.08;65.55;101118.03;5058743;28;20641;-63
2024/04/07 04:18:58;;;;;;;1.33;0.60;;;;;;;16.11;66.08;101147.66;5061589;28;20075;-63
2024/04/07 04:21:24;;;;;;;0.95;0.50;;;;;;;16.02;67.13;101130.56;5053353;28;20032;-63
2024/04/07 04:23:49;;;;;;;1.25;0.50;;;;;;;16.01;66.84;101133.28;5060187;28;20666;-63
2024/04/07 04:26:15;;;;;;;1.00;0.70;;;;;;;15.97;67.26;101127.28;5064797;28;20024;-64
2024/04/07 04:28:40;;;;;;;1.60;0.50;;;;;;;15.97;66.79;101136.97;5063565;28;20419;-65
2024/04/07 04:31:07;;;;;;;1.27;0.32;;;;;;;16.04;65.76;101133.09;5064348;28;20025;-64
2024/04/07 04:33:32;;;;;;;1.85;0.60;;;;;;;15.96;66.44;101138.78;5053202;28;20043;-64
2024/04/07 04:35:58;;;;;;;3.40;0.60;;;;;;;16.05;65.52;101124.28;5054795;28;20397;-64
2024/04/07 04:38:23;;;;;;;0.88;0.50;;;;;;;16.04;65.41;101124.38;5069034;28;20028;-64
2024/04/07 04:40:55;;;;;;;0.88;0.50;;;;;;;15.95;66.36;101104.59;5069620;28;20032;-64
2024/04/07 04:43:22;;;;;;;3.95;0.50;;;;;;;15.94;66.37;101122.19;5057625;28;20383;-64
2024/04/07 04:46:08;;;;;;;0.60;0.50;;;;;;;15.97;66.47;101131.72;5055633;28;20048;-65
2024/04/07 04:48:34;;;;;;;1.38;0.52;;;;;;;15.92;66.48;101138.97;5060699;28;20534;-64
2024/04/07 04:51:00;;;;;;;1.90;0.60;;;;;;;15.84;67.46;101142.84;5060023;28;20059;-64
2024/04/07 04:53:26;;;;;;;1.30;0.52;;;;;;;15.92;66.04;101160.03;5064199;28;20079;-64
2024/04/07 04:55:51;;;;;;;1.38;0.60;;;;;;;15.91;66.25;101155.69;5065375;28;20026;-64
2024/04/07 04:58:19;;;;;;;1.10;0.60;;;;;;;15.91;66.24;101153.06;5063792;28;20032;-65
2024/04/07 05:00:44;;;;;;;1.10;0.68;;;;;;;15.89;65.87;101144.41;5059363;28;20025;-64
2024/04/07 05:03:09;;;;;;;1.17;0.60;;;;;;;15.82;67.23;101144.72;5065074;28;20625;-65
2024/04/07 05:05:35;;;;;;;1.48;0.52;;;;;;;15.80;66.83;101149.19;5060120;28;20037;-64
2024/04/07 05:08:00;;;;;;;0.73;0.43;;;;;;;15.75;67.79;101159.06;5058622;28;20032;-64
2024/04/07 05:10:25;;;;;;;3.92;0.60;;;;;;;15.72;67.79;101163.63;5064216;28;20029;-64
2024/04/07 05:12:51;;;;;;;1.08;0.60;;;;;;;15.77;67.25;101173.00;5057603;28;20486;-64
2024/04/07 05:15:16;;;;;;;1.70;0.70;;;;;;;15.78;67.46;101179.97;5054782;28;20059;-64
2024/04/07 05:17:42;;;;;;;1.40;0.50;;;;;;;15.84;66.47;101170.97;5066191;28;20444;-64
2024/04/07 05:20:07;;;;;;;2.80;0.60;;;;;;;15.77;67.23;101170.38;5060543;28;20074;-63
2024/04/07 05:22:33;;;;;;;1.15;0.65;;;;;;;15.67;68.46;101182.25;5058720;28;20484;-64
2024/04/07 05:24:59;;;;;;;1.90;0.50;;;;;;;15.65;69.88;101189.38;5055198;28;20081;-65
2024/04/07 05:27:25;;;;;;;2.70;0.50;;;;;;;15.65;68.78;101178.84;5056737;28;20383;-65
2024/04/07 05:29:50;;;;;;;1.85;0.75;;;;;;;15.65;69.19;101176.22;5060190;28;20028;-64
2024/04/07 05:32:15;;;;;;;1.58;0.52;;;;;;;15.61;70.06;101185.19;5054353;28;20534;-64
2024/04/07 05:34:41;;;;;;;1.95;0.60;;;;;;;15.71;68.61;101196.13;5057514;28;20032;-63
2024/04/07 05:37:06;;;;;;;2.25;0.60;;;;;;;15.76;68.43;101187.09;5060206;28;20024;-64
2024/04/07 05:39:32;;;;;;;0.73;0.50;;;;;;;15.63;69.83;101191.22;5059619;28;20035;-63
2024/04/07 05:41:58;;;;;;;2.00;0.68;;;;;;;15.68;69.88;101194.50;5060735;28;20034;-63
2024/04/07 05:44:24;;;;;;;2.38;0.65;;;;;;;15.60;70.92;101196.63;5060605;28;20032;-64
2024/04/07 05:46:51;;;;;;;0.98;0.47;;;;;;;15.59;71.17;101211.56;5056375;28;20040;-63
2024/04/07 05:49:16;;;;;;;2.55;0.80;;;;;;;15.64;70.69;101211.34;5063780;28;20243;-64
2024/04/07 05:51:42;;;;;;;2.65;0.75;;;;;;;15.56;71.88;101205.59;5062543;28;20039;-64
2024/04/07 05:54:07;;;;;;;1.90;0.65;;;;;;;15.57;71.81;101213.41;5064507;28;20028;-63
2024/04/07 05:56:33;;;;;;;0.88;0.60;;;;;;;15.65;70.98;101216.53;5057035;28;20516;-65
2024/04/07 05:58:58;;;;;;;1.50;0.73;;;;;;;15.58;71.90;101227.44;5059172;28;20029;-65
2024/04/07 06:01:23;;;;;;;1.73;0.80;;;;;;;15.52;72.95;101234.69;5059062;28;20256;-64
2024/04/07 06:03:48;;;;;;;1.50;0.63;;;;;;;15.56;71.86;101237.16;5060193;28;20111;-64
2024/04/07 06:06:14;;;;;;;3.53;0.80;;;;;;;15.54;72.13;101234.59;5057245;28;20047;-64
2024/04/07 06:08:39;;;;;;;0.93;0.77;;;;;;;15.54;72.54;101236.41;5059028;28;20029;-65
2024/04/07 06:11:04;;;;;;;1.23;0.70;;;;;;;15.50;73.25;101241.78;5052445;28;20056;-64
2024/04/07 06:13:30;;;;;;;2.50;0.65;;;;;;;15.43;73.70;101242.16;5059746;28;20592;-62
2024/04/07 06:15:55;;;;;;;2.05;0.70;;;;;;;15.40;74.44;101250.19;5054158;28;20154;-63
2024/04/07 06:18:20;;;;;;;2.05;0.70;;;;;;;15.38;74.56;101255.50;5058054;28;20020;-63
2024/04/07 06:20:46;;;;;;;0.70;0.60;;;;;;;15.37;74.60;101255.56;5060563;28;20016;-64
2024/04/07 06:23:11;;;;;;;1.55;0.57;;;;;;;15.35;74.36;101250.38;5062022;28;20467;-63
2024/04/07 06:25:37;;;;;;;1.05;0.73;;;;;;;15.37;74.56;101266.94;5058090;28;20100;-63
2024/04/07 06:28:02;;;;;;;3.65;0.80;;;;;;;15.32;75.65;101266.28;5060477;28;20097;-64
2024/04/07 06:30:28;;;;;;;1.08;0.60;;;;;;;15.36;74.48;101257.34;5053975;28;20032;-63
2024/04/07 06:32:53;;;;;;;1.92;0.80;;;;;;;15.33;75.83;101260.13;5050800;28;20062;-65
2024/04/07 06:35:18;;;;;;;1.98;0.82;;;;;;;15.34;75.77;101264.47;5065818;28;20482;-64
2024/04/07 06:37:43;;;;;;;3.03;0.90;;;;;;;15.31;76.13;101264.56;5067327;28;20497;-64
2024/04/07 06:40:09;;;;;;;2.47;0.88;;;;;;;15.29;76.44;101262.03;5067679;28;20406;-64
2024/04/07 06:42:34;;;;;;;0.90;0.60;;;;;;;15.33;76.46;101258.34;5062045;28;20021;-64
2024/04/07 06:44:59;;;;;;;3.58;0.80;;;;;;;15.33;76.63;101252.22;5063959;28;20082;-64
2024/04/07 06:47:28;;;;;;;2.42;0.70;;;;;;;15.40;76.05;101258.91;5061733;28;20059;-64
2024/04/07 06:49:56;;;;;;;1.42;0.77;;;;;;;15.45;75.37;101262.19;5075451;28;20027;-64
2024/04/07 06:52:23;;;;;;;2.25;0.80;;;;;;;15.44;75.89;101271.00;5065780;28;20024;-64
2024/04/07 06:54:48;;;;;;;4.75;1.05;;;;;;;15.48;75.58;101280.47;5050551;28;20023;-64
2024/04/07 06:57:15;;;;;;;2.70;0.80;;;;;;;15.42;76.31;101270.25;5061513;28;20309;-64
2024/04/07 06:59:41;;;;;;;3.30;1.10;;;;;;;15.43;77.29;101277.19;5062826;28;20389;-64
2024/04/07 07:02:07;;;;;;;2.63;0.80;;;;;;;15.42;77.34;101283.38;5057453;28;20104;-64
2024/04/07 07:04:32;;;;;;;3.13;0.70;;;;;;;15.50;76.72;101283.88;5051101;28;20119;-64
2024/04/07 07:06:57;;;;;;;1.35;0.70;;;;;;;15.45;78.06;101282.38;5048385;28;20156;-65
2024/04/07 07:09:23;;;;;;;3.55;1.20;;;;;;;15.52;77.09;101289.94;5068453;28;20035;-65
2024/04/07 07:11:48;;;;;;;2.30;0.93;;;;;;;15.45;78.38;101288.50;5056199;28;20054;-65
2024/04/07 07:14:13;;;;;;;4.63;1.10;;;;;;;15.46;78.57;101290.22;5067643;28;20540;-65
2024/04/07 07:16:39;;;;;;;2.50;1.10;;;;;;;15.47;78.61;101291.91;5057093;28;20145;-64
2024/04/07 07:19:04;;;;;;;1.58;0.90;;;;;;;15.51;78.86;101304.00;5067491;28;20038;-65
2024/04/07 07:21:30;;;;;;;2.85;1.00;;;;;;;15.51;79.08;101306.63;5067287;28;20060;-64
2024/04/07 07:23:55;;;;;;;3.85;1.10;;;;;;;15.50;79.10;101317.22;5057552;28;20021;-65
2024/04/07 07:26:20;;;;;;;1.85;1.00;;;;;;;15.52;80.41;101312.75;5054860;28;20388;-65
2024/04/07 07:28:45;;;;;;;3.85;1.10;;;;;;;15.59;80.41;101316.81;5054887;28;20035;-63
2024/04/07 07:31:11;;;;;;;2.75;1.20;;;;;;;15.66;80.30;101317.41;5063676;28;20115;-64
2024/04/07 07:33:36;;;;;;;2.60;1.10;;;;;;;15.75;80.36;101326.66;5057236;28;20020;-65
2024/04/07 07:36:03;;;;;;;5.30;1.00;;;;;;;15.78;80.68;101327.38;5060996;28;20131;-64
2024/04/07 07:38:28;;;;;;;3.45;1.13;;;;;;;15.88;80.91;101321.69;5067116;28;20020;-64
2024/04/07 07:40:53;;;;;;;3.10;1.00;;;;;;;15.98;80.77;101323.00;5058414;28;20024;-63
2024/04/07 07:43:19;;;;;;;2.92;1.23;;;;;;;16.04;79.90;101317.41;5058072;28;20028;-64
2024/04/07 07:45:47;;;;;;;3.47;1.45;;;;;;;16.12;79.82;101325.81;5057914;28;20028;-64
2024/04/07 07:48:12;;;;;;;2.60;1.25;;;;;;;16.13;81.41;101306.47;5061055;28;20028;-64
2024/04/07 07:50:42;;;;;;;3.08;1.10;;;;;;;16.28;78.40;101323.31;5065288;28;20589;-64
2024/04/07 07:53:08;;;;;;;2.80;1.17;;;;;;;16.27;79.30;101331.28;5062502;28;20032;-65
2024/04/07 07:55:34;;;;;;;4.55;1.40;;;;;;;16.28;80.15;101333.84;5054312;28;20021;-64
2024/04/07 07:57:59;;;;;;;2.20;1.08;;;;;;;16.37;78.21;101340.47;5060177;28;20377;-64
2024/04/07 08:00:25;;;;;;;4.55;1.40;;;;;;;16.38;78.86;101347.44;5057650;28;20032;-64
2024/04/07 08:02:52;;;;;;;3.42;1.20;;;;;;;16.41;79.98;101346.41;5052378;28;20391;-65
2024/04/07 08:05:18;;;;;;;5.00;1.50;;;;;;;16.47;79.53;101346.97;5061676;28;20094;-64
2024/04/07 08:07:43;;;;;;;3.05;1.20;;;;;;;16.53;79.51;101351.09;5045167;28;20032;-64
2024/04/07 08:10:09;;;;;;;3.20;1.33;;;;;;;16.60;79.42;101351.66;5069493;28;20081;-64
2024/04/07 08:12:36;;;;;;;3.10;1.23;;;;;;;16.81;76.15;101366.41;5066481;28;20486;-64
2024/04/07 08:15:03;;;;;;;6.65;1.10;;;;;;;16.83;75.50;101367.19;5052514;28;20341;-64
2024/04/07 08:17:29;;;;;;;4.47;1.33;;;;;;;16.76;77.55;101357.88;5062587;28;20042;-65
2024/04/07 08:19:54;;;;;;;6.53;1.38;;;;;;;16.73;79.17;101367.69;5060695;28;20029;-64
2024/04/07 08:22:20;;;;;;;4.90;1.45;;;;;;;16.77;79.25;101366.63;5060667;28;20508;-65
2024/04/07 08:24:45;;;;;;;3.90;1.30;;;;;;;16.81;76.79;101360.28;5061235;28;20068;-64
2024/04/07 08:27:10;;;;;;;4.72;1.33;;;;;;;16.89;78.38;101367.84;5061973;28;20296;-65
2024/04/07 08:29:35;;;;;;;3.85;1.35;;;;;;;17.00;76.26;101370.78;5059742;28;20052;-64
2024/04/07 08:32:01;;;;;;;4.45;1.30;;;;;;;17.10;75.29;101365.91;5056210;28;20031;-64
2024/04/07 08:34:26;;;;;;;4.47;1.30;;;;;;;17.17;74.02;101365.53;5063030;28;20063;-64
2024/04/07 08:36:51;;;;;;;3.10;1.10;;;;;;;17.19;74.96;101360.16;5064876;28;20100;-65
2024/04/07 08:39:17;;;;;;;5.13;1.10;;;;;;;17.21;75.43;101363.56;5060393;28;20028;-64
2024/04/07 08:41:46;;;;;;;3.92;1.38;;;;;;;17.28;76.10;101364.09;5065824;28;20111;-64
2024/04/07 08:44:13;;;;;;;5.82;1.40;;;;;;;17.26;74.99;101358.91;5068913;28;20447;-64
2024/04/07 08:46:40;;;;;;;3.10;1.35;;;;;;;17.26;76.20;101364.19;5062784;28;20035;-65
2024/04/07 08:49:07;;;;;;;3.58;1.30;;;;;;;17.30;76.09;101364.91;5066254;28;20034;-65
2024/04/07 08:51:36;;;;;;;3.75;1.17;;;;;;;17.41;74.44;101373.09;5060621;28;20541;-64
2024/04/07 08:54:03;;;;;;;5.97;1.05;;;;;;;17.49;71.90;101376.19;5060018;28;20032;-65
2024/04/07 08:56:29;;;;;;;2.83;1.20;;;;;;;17.51;72.90;101376.13;5048435;28;20248;-65
2024/04/07 08:58:58;;;;;;;3.90;1.50;;;;;;;17.51;72.69;101370.84;5050080;28;20040;-64
2024/04/07 09:01:31;;;;;;;2.08;1.10;;;;;;;17.52;72.51;101376.03;5057254;28;20467;-64
2024/04/07 09:04:00;;;;;;;2.45;1.00;;;;;;;17.57;71.13;101374.94;5049212;28;20144;-64
2024/04/07 09:06:29;;;;;;;3.65;1.17;;;;;;;17.64;70.46;101386.88;5051952;28;20036;-62
2024/04/07 09:08:58;;;;;;;5.93;1.90;;;;;;;17.65;71.84;101383.31;5051889;28;20059;-62
2024/04/07 09:11:26;;;;;;;2.08;1.00;;;;;;;17.66;71.06;101377.09;5052090;28;20037;-62
2024/04/07 09:13:52;;;;;;;5.03;1.00;;;;;;;17.77;70.03;101376.50;5054407;28;20368;-63
2024/04/07 09:16:17;;;;;;;2.42;1.13;;;;;;;17.83;70.08;101377.03;5061070;28;20115;-64
2024/04/07 09:18:43;;;;;;;5.00;1.17;;;;;;;17.88;70.09;101372.38;5061152;28;20032;-64
2024/04/07 09:21:24;;;;;;;4.03;1.23;;;;;;;17.99;73.81;101371.81;5057861;28;20383;-64
2024/04/07 09:23:50;;;;;;;5.55;1.20;;;;;;;18.11;70.86;101374.72;5054613;28;20902;-64
2024/04/07 09:26:19;;;;;;;3.72;1.10;;;;;;;18.23;71.15;101369.59;5070177;28;20107;-64
2024/04/07 09:28:45;;;;;;;3.03;1.10;;;;;;;18.25;68.71;101374.78;5057375;28;20032;-63
2024/04/07 09:31:10;;;;;;;2.60;1.00;;;;;;;18.32;68.10;101372.66;5055856;28;20017;-64
2024/04/07 09:33:36;;;;;;;2.03;1.05;;;;;;;18.40;69.92;101368.66;5063600;28;20295;-64
2024/04/07 09:36:02;;;;;;;3.60;1.00;;;;;;;18.47;66.50;101373.59;5078967;28;20031;-64
2024/04/07 09:38:28;;;;;;;3.97;1.20;;;;;;;18.47;66.35;101377.09;5063673;28;20032;-65
2024/04/07 09:41:00;;;;;;;2.53;0.98;;;;;;;18.52;63.69;101364.47;5065453;28;20066;-62
2024/04/07 09:43:27;;;;;;;2.72;0.88;;;;;;;18.46;62.75;101364.84;5062901;28;20043;-64
2024/04/07 09:45:53;;;;;;;3.28;1.13;;;;;;;18.43;63.59;101370.28;5063163;28;20395;-64
2024/04/07 09:48:24;;;;;;;2.28;0.90;;;;;;;18.51;63.83;101370.69;5063865;28;20029;-64
2024/04/07 09:50:59;;;;;;;4.60;1.25;;;;;;;18.58;62.57;101358.81;5060254;28;20086;-65
2024/04/07 09:53:38;;;;;;;6.18;1.33;;;;;;;18.59;63.48;101372.91;5051645;28;20032;-62
2024/04/07 09:56:04;;;;;;;1.95;0.90;;;;;;;18.58;64.79;101364.09;5059337;28;20047;-64
2024/04/07 09:58:33;;;;;;;3.22;0.85;;;;;;;18.69;60.30;101365.28;5062216;28;20626;-64
2024/04/07 10:00:58;;;;;;;2.25;0.95;;;;;;;18.68;61.48;101366.22;5067038;28;20077;-64
2024/04/07 10:03:24;;;;;;;3.80;0.90;;;;;;;18.69;62.73;101360.00;5063119;28;20024;-63
2024/04/07 10:05:49;;;;;;;3.40;1.15;;;;;;;18.74;63.08;101365.91;5062543;28;20036;-65
2024/04/07 10:08:15;;;;;;;2.40;0.80;;;;;;;18.74;62.68;101365.91;5063944;28;20110;-64
2024/04/07 10:10:42;;;;;;;4.47;1.08;;;;;;;18.81;62.82;101359.31;5060708;28;20111;-64
2024/04/07 10:13:08;;;;;;;2.20;0.90;;;;;;;18.87;61.11;101361.59;5057524;28;20158;-62
2024/04/07 10:15:36;;;;;;;1.98;0.90;;;;;;;18.90;60.64;101363.22;5054033;28;20036;-65
2024/04/07 10:18:17;;;;;;;2.75;1.00;;;;;;;19.01;62.65;101359.97;5061604;28;20039;-64
2024/04/07 10:20:43;;;;;;;2.13;0.85;;;;;;;19.11;60.58;101350.50;5059825;28;20032;-64
2024/04/07 10:23:10;;;;;;;1.77;0.82;;;;;;;19.18;57.61;101353.66;5056793;28;20390;-65
2024/04/07 10:25:35;;;;;;;0.90;0.60;;;;;;;19.17;56.25;101357.22;5062789;28;20049;-64
2024/04/07 10:28:01;;;;;;;1.75;0.50;;;;;;;19.20;55.01;101354.44;5058646;28;20025;-64
2024/04/07 10:30:27;;;;;;;2.72;0.90;;;;;;;19.17;55.97;101355.47;5059486;28;20621;-64
2024/04/07 10:32:52;;;;;;;2.83;0.98;;;;;;;19.15;55.15;101361.78;5047197;28;20488;-63
2024/04/07 10:35:22;;;;;;;2.30;1.25;;;;;;;19.12;57.18;101346.09;5055784;28;20024;-63
2024/04/07 10:37:50;;;;;;;2.20;0.70;;;;;;;19.21;58.52;101362.28;5051043;28;20086;-63
2024/04/07 10:40:17;;;;;;;2.53;1.00;;;;;;;19.28;54.25;101349.53;5058360;28;20025;-64
2024/04/07 10:42:42;;;;;;;2.00;0.80;;;;;;;19.30;54.16;101344.13;5060051;28;20027;-64
2024/04/07 10:45:09;;;;;;;2.03;0.90;;;;;;;19.27;54.80;101350.47;5056669;28;20236;-64
2024/04/07 10:47:34;;;;;;;3.63;1.17;;;;;;;19.25;54.89;101342.63;5052360;28;20033;-64
2024/04/07 10:50:00;;;;;;;1.98;0.70;;;;;;;19.31;55.08;101341.38;5056736;28;20043;-63
2024/04/07 10:52:31;;;;;;;3.33;0.98;;;;;;;19.26;54.33;101354.03;5058517;28;20025;-64
2024/04/07 10:54:57;;;;;;;1.95;0.70;;;;;;;19.41;51.70;101352.28;5060498;28;20501;-64
2024/04/07 10:57:23;;;;;;;2.03;0.95;;;;;;;19.40;51.78;101346.09;5053643;28;20262;-63
2024/04/07 10:59:48;;;;;;;3.75;0.95;;;;;;;19.39;53.75;101351.50;5056208;28;20024;-63
2024/04/07 11:02:14;;;;;;;2.67;0.80;;;;;;;19.39;53.59;101348.84;5048771;28;20033;-64
2024/04/07 11:04:40;;;;;;;1.73;0.80;;;;;;;19.54;54.68;101352.34;5056781;28;20032;-63
2024/04/07 11:07:06;;;;;;;4.63;1.23;;;;;;;19.52;53.40;101349.81;5049318;28;20284;-64
2024/04/07 11:09:32;;;;;;;2.80;1.00;;;;;;;19.58;54.86;101348.56;5050993;28;20017;-63
2024/04/07 11:11:59;;;;;;;1.73;0.80;;;;;;;19.56;54.11;101343.38;5069636;28;20099;-64
2024/04/07 11:14:26;;;;;;;0.80;0.80;;;;;;;19.59;52.09;101350.28;5057067;28;20089;-65
2024/04/07 11:16:53;;;;;;;2.38;0.88;;;;;;;19.63;50.68;101356.22;5058042;28;20033;-65
2024/04/07 11:19:18;;;;;;;3.80;0.98;;;;;;;19.70;50.73;101362.88;5063054;28;20059;-64
2024/04/07 11:21:46;;;;;;;2.05;0.90;;;;;;;19.61;51.93;101353.69;5060521;28;20060;-64